sensor_id;sensor_type;location;lat;lon;timestamp;P1;durP1;ratioP1;P2;durP2;ratioP2
21458;SDS011;10891;49.350;19.386;2022-10-30T00:00:52;40.33;;;22.60;;
21458;SDS011;10891;49.350;19.386;2022-10-30T00:03:18;49.95;;;26.67;;
21458;SDS011;10891;49.350;19.386;2022-10-30T00:05:46;55.75;;;28.60;;
21458;SDS011;10891;49.350;19.386;2022-10-30T00:08:15;34.03;;;18.05;;
21458;SDS011;10891;49.350;19.386;2022-10-30T00:10:43;35.97;;;16.98;;
21458;SDS011;10891;49.350;19.386;2022-10-30T00:13:11;30.73;;;15.95;;
21458;SDS011;10891;49.350;19.386;2022-10-30T00:15:40;33.20;;;16.42;;
21458;SDS011;10891;49.350;19.386;2022-10-30T00:18:12;25.25;;;13.55;;
21458;SDS011;10891;49.350;19.386;2022-10-30T00:20:39;20.95;;;11.93;;
21458;SDS011;10891;49.350;19.386;2022-10-30T00:23:06;26.85;;;13.10;;
21458;SDS011;10891;49.350;19.386;2022-10-30T00:25:33;23.05;;;11.88;;
21458;SDS011;10891;49.350;19.386;2022-10-30T00:28:00;21.63;;;11.18;;
21458;SDS011;10891;49.350;19.386;2022-10-30T00:30:27;20.27;;;12.00;;
21458;SDS011;10891;49.350;19.386;2022-10-30T00:32:55;27.95;;;14.43;;
21458;SDS011;10891;49.350;19.386;2022-10-30T00:35:22;45.22;;;24.13;;
21458;SDS011;10891;49.350;19.386;2022-10-30T00:37:49;46.15;;;24.80;;
21458;SDS011;10891;49.350;19.386;2022-10-30T00:40:18;42.28;;;24.40;;
21458;SDS011;10891;49.350;19.386;2022-10-30T00:42:45;39.60;;;24.55;;
21458;SDS011;10891;49.350;19.386;2022-10-30T00:45:12;47.45;;;27.70;;
21458;SDS011;10891;49.350;19.386;2022-10-30T00:47:41;41.20;;;24.88;;
21458;SDS011;10891;49.350;19.386;2022-10-30T00:50:12;27.10;;;15.57;;
21458;SDS011;10891;49.350;19.386;2022-10-30T00:52:43;26.83;;;13.75;;
21458;SDS011;10891;49.350;19.386;2022-10-30T00:55:14;21.23;;;10.73;;
21458;SDS011;10891;49.350;19.386;2022-10-30T00:57:45;23.45;;;13.48;;
21458;SDS011;10891;49.350;19.386;2022-10-30T01:00:14;36.20;;;24.58;;
21458;SDS011;10891;49.350;19.386;2022-10-30T01:02:42;43.00;;;30.33;;
21458;SDS011;10891;49.350;19.386;2022-10-30T01:05:09;25.88;;;16.00;;
21458;SDS011;10891;49.350;19.386;2022-10-30T01:07:42;22.20;;;12.05;;
21458;SDS011;10891;49.350;19.386;2022-10-30T01:10:09;19.52;;;11.02;;
21458;SDS011;10891;49.350;19.386;2022-10-30T01:12:37;14.45;;;8.43;;
21458;SDS011;10891;49.350;19.386;2022-10-30T01:15:05;17.83;;;9.20;;
21458;SDS011;10891;49.350;19.386;2022-10-30T01:20:39;88.60;;;32.90;;
21458;SDS011;10891;49.350;19.386;2022-10-30T01:23:21;107.90;;;37.97;;
21458;SDS011;10891;49.350;19.386;2022-10-30T01:25:55;161.32;;;58.15;;
21458;SDS011;10891;49.350;19.386;2022-10-30T01:28:34;63.13;;;25.70;;
21458;SDS011;10891;49.350;19.386;2022-10-30T01:31:17;55.67;;;22.60;;
21458;SDS011;10891;49.350;19.386;2022-10-30T01:33:55;124.88;;;49.55;;
21458;SDS011;10891;49.350;19.386;2022-10-30T01:36:31;133.52;;;59.65;;
21458;SDS011;10891;49.350;19.386;2022-10-30T01:39:03;160.02;;;64.40;;
21458;SDS011;10891;49.350;19.386;2022-10-30T01:41:35;84.05;;;37.63;;
21458;SDS011;10891;49.350;19.386;2022-10-30T01:44:03;36.60;;;17.48;;
21458;SDS011;10891;49.350;19.386;2022-10-30T01:46:45;28.10;;;12.77;;
21458;SDS011;10891;49.350;19.386;2022-10-30T01:52:14;19.23;;;8.88;;
21458;SDS011;10891;49.350;19.386;2022-10-30T01:54:49;28.05;;;13.65;;
21458;SDS011;10891;49.350;19.386;2022-10-30T01:57:22;24.80;;;12.98;;
21458;SDS011;10891;49.350;19.386;2022-10-30T02:00:03;25.73;;;12.38;;
21458;SDS011;10891;49.350;19.386;2022-10-30T02:02:31;26.67;;;12.15;;
21458;SDS011;10891;49.350;19.386;2022-10-30T02:04:58;17.73;;;8.90;;
21458;SDS011;10891;49.350;19.386;2022-10-30T02:07:27;18.20;;;9.63;;
21458;SDS011;10891;49.350;19.386;2022-10-30T02:09:54;18.25;;;8.50;;
21458;SDS011;10891;49.350;19.386;2022-10-30T02:12:21;22.55;;;10.65;;
21458;SDS011;10891;49.350;19.386;2022-10-30T02:14:52;26.08;;;14.80;;
21458;SDS011;10891;49.350;19.386;2022-10-30T02:17:22;20.92;;;11.32;;
21458;SDS011;10891;49.350;19.386;2022-10-30T02:19:50;28.02;;;19.77;;
21458;SDS011;10891;49.350;19.386;2022-10-30T02:22:18;14.50;;;8.02;;
21458;SDS011;10891;49.350;19.386;2022-10-30T02:24:45;16.70;;;8.05;;
21458;SDS011;10891;49.350;19.386;2022-10-30T02:27:12;20.02;;;7.57;;
21458;SDS011;10891;49.350;19.386;2022-10-30T02:29:39;19.63;;;7.90;;
21458;SDS011;10891;49.350;19.386;2022-10-30T02:32:06;17.08;;;7.97;;
21458;SDS011;10891;49.350;19.386;2022-10-30T02:34:33;18.10;;;8.25;;
21458;SDS011;10891;49.350;19.386;2022-10-30T02:37:00;16.85;;;8.80;;
21458;SDS011;10891;49.350;19.386;2022-10-30T02:39:28;29.95;;;11.18;;
21458;SDS011;10891;49.350;19.386;2022-10-30T02:41:55;37.63;;;14.65;;
21458;SDS011;10891;49.350;19.386;2022-10-30T02:44:22;62.65;;;25.75;;
21458;SDS011;10891;49.350;19.386;2022-10-30T02:46:49;48.65;;;18.05;;
21458;SDS011;10891;49.350;19.386;2022-10-30T02:49:16;28.40;;;12.80;;
21458;SDS011;10891;49.350;19.386;2022-10-30T02:51:45;24.10;;;10.93;;
21458;SDS011;10891;49.350;19.386;2022-10-30T02:54:12;31.00;;;11.70;;
21458;SDS011;10891;49.350;19.386;2022-10-30T02:56:40;23.77;;;9.93;;
21458;SDS011;10891;49.350;19.386;2022-10-30T02:59:07;27.80;;;16.52;;
21458;SDS011;10891;49.350;19.386;2022-10-30T03:01:34;23.05;;;9.68;;
21458;SDS011;10891;49.350;19.386;2022-10-30T03:04:01;17.90;;;7.90;;
21458;SDS011;10891;49.350;19.386;2022-10-30T03:06:27;15.40;;;7.32;;
21458;SDS011;10891;49.350;19.386;2022-10-30T03:08:54;22.95;;;8.27;;
21458;SDS011;10891;49.350;19.386;2022-10-30T03:11:21;42.70;;;15.35;;
21458;SDS011;10891;49.350;19.386;2022-10-30T03:13:49;38.17;;;16.20;;
21458;SDS011;10891;49.350;19.386;2022-10-30T03:16:17;51.83;;;17.90;;
21458;SDS011;10891;49.350;19.386;2022-10-30T03:18:46;44.10;;;15.73;;
21458;SDS011;10891;49.350;19.386;2022-10-30T03:21:14;44.35;;;17.13;;
21458;SDS011;10891;49.350;19.386;2022-10-30T03:23:43;35.08;;;14.77;;
21458;SDS011;10891;49.350;19.386;2022-10-30T03:26:10;34.85;;;13.70;;
21458;SDS011;10891;49.350;19.386;2022-10-30T03:28:37;31.63;;;15.45;;
21458;SDS011;10891;49.350;19.386;2022-10-30T03:31:06;39.80;;;17.25;;
21458;SDS011;10891;49.350;19.386;2022-10-30T03:33:34;75.45;;;26.40;;
21458;SDS011;10891;49.350;19.386;2022-10-30T03:36:02;75.82;;;26.10;;
21458;SDS011;10891;49.350;19.386;2022-10-30T03:38:30;54.55;;;18.25;;
21458;SDS011;10891;49.350;19.386;2022-10-30T03:40:57;52.13;;;17.85;;
21458;SDS011;10891;49.350;19.386;2022-10-30T03:43:25;33.90;;;13.65;;
21458;SDS011;10891;49.350;19.386;2022-10-30T03:45:52;40.20;;;17.73;;
21458;SDS011;10891;49.350;19.386;2022-10-30T03:48:22;28.25;;;12.18;;
21458;SDS011;10891;49.350;19.386;2022-10-30T03:50:51;44.00;;;20.13;;
21458;SDS011;10891;49.350;19.386;2022-10-30T03:53:18;73.32;;;42.50;;
21458;SDS011;10891;49.350;19.386;2022-10-30T03:55:45;58.80;;;38.40;;
21458;SDS011;10891;49.350;19.386;2022-10-30T03:58:12;15.52;;;9.05;;
21458;SDS011;10891;49.350;19.386;2022-10-30T04:00:39;19.92;;;8.27;;
21458;SDS011;10891;49.350;19.386;2022-10-30T04:03:06;13.35;;;6.75;;
21458;SDS011;10891;49.350;19.386;2022-10-30T04:05:35;14.18;;;7.22;;
21458;SDS011;10891;49.350;19.386;2022-10-30T04:08:03;15.55;;;7.90;;
21458;SDS011;10891;49.350;19.386;2022-10-30T04:10:32;28.17;;;14.07;;
21458;SDS011;10891;49.350;19.386;2022-10-30T04:12:59;33.60;;;17.67;;
21458;SDS011;10891;49.350;19.386;2022-10-30T04:15:26;28.38;;;13.23;;
21458;SDS011;10891;49.350;19.386;2022-10-30T04:17:54;27.42;;;11.88;;
21458;SDS011;10891;49.350;19.386;2022-10-30T04:20:21;31.63;;;15.70;;
21458;SDS011;10891;49.350;19.386;2022-10-30T04:22:50;26.08;;;9.25;;
21458;SDS011;10891;49.350;19.386;2022-10-30T04:25:21;24.77;;;10.98;;
21458;SDS011;10891;49.350;19.386;2022-10-30T04:27:47;21.52;;;10.43;;
21458;SDS011;10891;49.350;19.386;2022-10-30T04:30:16;19.17;;;8.75;;
21458;SDS011;10891;49.350;19.386;2022-10-30T04:32:45;18.80;;;9.02;;
21458;SDS011;10891;49.350;19.386;2022-10-30T04:35:12;16.20;;;8.75;;
21458;SDS011;10891;49.350;19.386;2022-10-30T04:37:40;19.55;;;7.75;;
21458;SDS011;10891;49.350;19.386;2022-10-30T04:40:08;22.92;;;8.68;;
21458;SDS011;10891;49.350;19.386;2022-10-30T04:42:36;22.40;;;10.50;;
21458;SDS011;10891;49.350;19.386;2022-10-30T04:45:03;22.02;;;9.60;;
21458;SDS011;10891;49.350;19.386;2022-10-30T04:47:30;20.38;;;9.20;;
21458;SDS011;10891;49.350;19.386;2022-10-30T04:49:57;22.52;;;9.50;;
21458;SDS011;10891;49.350;19.386;2022-10-30T04:52:24;19.70;;;8.43;;
21458;SDS011;10891;49.350;19.386;2022-10-30T04:54:51;14.75;;;8.23;;
21458;SDS011;10891;49.350;19.386;2022-10-30T04:57:19;17.25;;;8.60;;
21458;SDS011;10891;49.350;19.386;2022-10-30T04:59:46;14.75;;;8.93;;
21458;SDS011;10891;49.350;19.386;2022-10-30T05:02:13;17.85;;;9.13;;
21458;SDS011;10891;49.350;19.386;2022-10-30T05:04:40;17.15;;;8.23;;
21458;SDS011;10891;49.350;19.386;2022-10-30T05:07:06;15.80;;;8.35;;
21458;SDS011;10891;49.350;19.386;2022-10-30T05:09:33;20.55;;;11.57;;
21458;SDS011;10891;49.350;19.386;2022-10-30T05:12:00;24.85;;;11.50;;
21458;SDS011;10891;49.350;19.386;2022-10-30T05:14:30;21.20;;;10.73;;
21458;SDS011;10891;49.350;19.386;2022-10-30T05:16:57;18.92;;;9.25;;
21458;SDS011;10891;49.350;19.386;2022-10-30T05:19:25;14.70;;;7.68;;
21458;SDS011;10891;49.350;19.386;2022-10-30T05:21:52;20.95;;;8.18;;
21458;SDS011;10891;49.350;19.386;2022-10-30T05:24:19;15.40;;;7.35;;
21458;SDS011;10891;49.350;19.386;2022-10-30T05:26:46;26.20;;;16.80;;
21458;SDS011;10891;49.350;19.386;2022-10-30T05:29:12;25.20;;;15.40;;
21458;SDS011;10891;49.350;19.386;2022-10-30T05:31:41;28.10;;;15.82;;
21458;SDS011;10891;49.350;19.386;2022-10-30T05:34:08;21.15;;;11.88;;
21458;SDS011;10891;49.350;19.386;2022-10-30T05:36:35;18.70;;;10.05;;
21458;SDS011;10891;49.350;19.386;2022-10-30T05:39:02;22.05;;;9.13;;
21458;SDS011;10891;49.350;19.386;2022-10-30T05:41:29;19.88;;;9.90;;
21458;SDS011;10891;49.350;19.386;2022-10-30T05:43:57;17.10;;;8.82;;
21458;SDS011;10891;49.350;19.386;2022-10-30T05:46:24;38.58;;;17.08;;
21458;SDS011;10891;49.350;19.386;2022-10-30T05:48:52;34.78;;;16.75;;
21458;SDS011;10891;49.350;19.386;2022-10-30T05:51:19;27.35;;;14.20;;
21458;SDS011;10891;49.350;19.386;2022-10-30T05:53:46;23.45;;;12.90;;
21458;SDS011;10891;49.350;19.386;2022-10-30T05:56:15;23.67;;;12.25;;
21458;SDS011;10891;49.350;19.386;2022-10-30T05:58:42;23.40;;;10.32;;
21458;SDS011;10891;49.350;19.386;2022-10-30T06:01:08;24.88;;;10.35;;
21458;SDS011;10891;49.350;19.386;2022-10-30T06:03:36;18.73;;;10.07;;
21458;SDS011;10891;49.350;19.386;2022-10-30T06:06:04;30.98;;;15.82;;
21458;SDS011;10891;49.350;19.386;2022-10-30T06:08:31;29.65;;;18.65;;
21458;SDS011;10891;49.350;19.386;2022-10-30T06:10:58;31.15;;;17.58;;
21458;SDS011;10891;49.350;19.386;2022-10-30T06:13:25;29.75;;;15.63;;
21458;SDS011;10891;49.350;19.386;2022-10-30T06:15:53;22.55;;;14.15;;
21458;SDS011;10891;49.350;19.386;2022-10-30T06:18:21;30.90;;;15.43;;
21458;SDS011;10891;49.350;19.386;2022-10-30T06:20:48;28.98;;;13.98;;
21458;SDS011;10891;49.350;19.386;2022-10-30T06:23:17;27.90;;;12.52;;
21458;SDS011;10891;49.350;19.386;2022-10-30T06:25:44;24.08;;;11.05;;
21458;SDS011;10891;49.350;19.386;2022-10-30T06:28:11;27.00;;;12.50;;
21458;SDS011;10891;49.350;19.386;2022-10-30T06:30:38;30.05;;;17.95;;
21458;SDS011;10891;49.350;19.386;2022-10-30T06:33:06;32.08;;;16.33;;
21458;SDS011;10891;49.350;19.386;2022-10-30T06:35:34;30.13;;;14.48;;
21458;SDS011;10891;49.350;19.386;2022-10-30T06:38:01;24.98;;;12.18;;
21458;SDS011;10891;49.350;19.386;2022-10-30T06:40:30;24.65;;;12.18;;
21458;SDS011;10891;49.350;19.386;2022-10-30T06:42:57;22.40;;;11.15;;
21458;SDS011;10891;49.350;19.386;2022-10-30T06:45:25;32.22;;;14.48;;
21458;SDS011;10891;49.350;19.386;2022-10-30T06:47:52;22.83;;;13.85;;
21458;SDS011;10891;49.350;19.386;2022-10-30T06:50:19;28.25;;;13.43;;
21458;SDS011;10891;49.350;19.386;2022-10-30T06:52:48;26.98;;;14.23;;
21458;SDS011;10891;49.350;19.386;2022-10-30T06:55:15;29.77;;;14.82;;
21458;SDS011;10891;49.350;19.386;2022-10-30T06:57:44;34.45;;;15.85;;
21458;SDS011;10891;49.350;19.386;2022-10-30T07:00:11;26.30;;;14.20;;
21458;SDS011;10891;49.350;19.386;2022-10-30T07:02:39;36.72;;;17.45;;
21458;SDS011;10891;49.350;19.386;2022-10-30T07:05:06;30.45;;;16.48;;
21458;SDS011;10891;49.350;19.386;2022-10-30T07:07:33;28.90;;;16.08;;
21458;SDS011;10891;49.350;19.386;2022-10-30T07:10:00;33.78;;;14.07;;
21458;SDS011;10891;49.350;19.386;2022-10-30T07:12:28;27.25;;;13.15;;
21458;SDS011;10891;49.350;19.386;2022-10-30T07:14:56;28.70;;;13.05;;
21458;SDS011;10891;49.350;19.386;2022-10-30T07:17:23;28.27;;;17.33;;
21458;SDS011;10891;49.350;19.386;2022-10-30T07:19:50;30.90;;;15.32;;
21458;SDS011;10891;49.350;19.386;2022-10-30T07:22:20;36.05;;;15.18;;
21458;SDS011;10891;49.350;19.386;2022-10-30T07:24:47;33.40;;;17.02;;
21458;SDS011;10891;49.350;19.386;2022-10-30T07:27:13;33.25;;;14.95;;
21458;SDS011;10891;49.350;19.386;2022-10-30T07:29:40;28.27;;;15.25;;
21458;SDS011;10891;49.350;19.386;2022-10-30T07:32:11;31.50;;;17.60;;
21458;SDS011;10891;49.350;19.386;2022-10-30T07:34:38;24.88;;;16.08;;
21458;SDS011;10891;49.350;19.386;2022-10-30T07:37:05;26.52;;;16.00;;
21458;SDS011;10891;49.350;19.386;2022-10-30T07:39:33;37.65;;;15.15;;
21458;SDS011;10891;49.350;19.386;2022-10-30T07:42:00;37.63;;;16.58;;
21458;SDS011;10891;49.350;19.386;2022-10-30T07:44:27;28.67;;;16.08;;
21458;SDS011;10891;49.350;19.386;2022-10-30T07:46:54;30.60;;;15.93;;
21458;SDS011;10891;49.350;19.386;2022-10-30T07:49:22;25.77;;;14.80;;
21458;SDS011;10891;49.350;19.386;2022-10-30T07:51:49;28.02;;;14.75;;
21458;SDS011;10891;49.350;19.386;2022-10-30T07:54:16;25.10;;;14.57;;
21458;SDS011;10891;49.350;19.386;2022-10-30T07:56:43;24.92;;;13.35;;
21458;SDS011;10891;49.350;19.386;2022-10-30T07:59:10;23.70;;;11.95;;
21458;SDS011;10891;49.350;19.386;2022-10-30T08:01:37;25.67;;;12.80;;
21458;SDS011;10891;49.350;19.386;2022-10-30T08:04:05;25.73;;;10.48;;
21458;SDS011;10891;49.350;19.386;2022-10-30T08:06:36;32.88;;;11.45;;
21458;SDS011;10891;49.350;19.386;2022-10-30T08:09:03;20.95;;;9.68;;
21458;SDS011;10891;49.350;19.386;2022-10-30T08:11:30;32.33;;;16.92;;
21458;SDS011;10891;49.350;19.386;2022-10-30T08:13:57;41.30;;;17.30;;
21458;SDS011;10891;49.350;19.386;2022-10-30T08:16:24;33.65;;;16.83;;
21458;SDS011;10891;49.350;19.386;2022-10-30T08:18:51;36.58;;;18.65;;
21458;SDS011;10891;49.350;19.386;2022-10-30T08:21:19;32.90;;;13.18;;
21458;SDS011;10891;49.350;19.386;2022-10-30T08:23:47;30.70;;;13.25;;
21458;SDS011;10891;49.350;19.386;2022-10-30T08:26:15;20.35;;;10.65;;
21458;SDS011;10891;49.350;19.386;2022-10-30T08:28:42;27.63;;;11.98;;
21458;SDS011;10891;49.350;19.386;2022-10-30T08:31:09;24.20;;;9.63;;
21458;SDS011;10891;49.350;19.386;2022-10-30T08:33:36;21.17;;;9.13;;
21458;SDS011;10891;49.350;19.386;2022-10-30T08:36:04;23.67;;;9.20;;
21458;SDS011;10891;49.350;19.386;2022-10-30T08:38:32;16.02;;;7.63;;
21458;SDS011;10891;49.350;19.386;2022-10-30T08:41:01;21.50;;;7.22;;
21458;SDS011;10891;49.350;19.386;2022-10-30T08:43:28;11.10;;;6.72;;
21458;SDS011;10891;49.350;19.386;2022-10-30T08:45:56;16.80;;;7.35;;
21458;SDS011;10891;49.350;19.386;2022-10-30T08:48:23;17.05;;;7.20;;
21458;SDS011;10891;49.350;19.386;2022-10-30T08:50:51;19.92;;;7.25;;
21458;SDS011;10891;49.350;19.386;2022-10-30T08:53:19;19.65;;;7.90;;
21458;SDS011;10891;49.350;19.386;2022-10-30T08:55:47;14.82;;;6.03;;
21458;SDS011;10891;49.350;19.386;2022-10-30T08:58:18;16.65;;;6.35;;
21458;SDS011;10891;49.350;19.386;2022-10-30T09:00:46;20.30;;;5.45;;
21458;SDS011;10891;49.350;19.386;2022-10-30T09:03:13;18.48;;;6.13;;
21458;SDS011;10891;49.350;19.386;2022-10-30T09:05:40;20.80;;;5.57;;
21458;SDS011;10891;49.350;19.386;2022-10-30T09:08:07;9.68;;;4.85;;
21458;SDS011;10891;49.350;19.386;2022-10-30T09:10:34;10.30;;;4.72;;
21458;SDS011;10891;49.350;19.386;2022-10-30T09:13:02;23.30;;;9.75;;
21458;SDS011;10891;49.350;19.386;2022-10-30T09:15:31;17.27;;;5.90;;
21458;SDS011;10891;49.350;19.386;2022-10-30T09:17:59;16.98;;;5.53;;
21458;SDS011;10891;49.350;19.386;2022-10-30T09:20:28;17.77;;;6.15;;
21458;SDS011;10891;49.350;19.386;2022-10-30T09:22:56;19.27;;;6.63;;
21458;SDS011;10891;49.350;19.386;2022-10-30T09:25:23;27.10;;;6.07;;
21458;SDS011;10891;49.350;19.386;2022-10-30T09:27:50;18.40;;;5.68;;
21458;SDS011;10891;49.350;19.386;2022-10-30T09:30:17;17.70;;;5.03;;
21458;SDS011;10891;49.350;19.386;2022-10-30T09:32:45;19.83;;;5.60;;
21458;SDS011;10891;49.350;19.386;2022-10-30T09:35:19;20.02;;;6.22;;
21458;SDS011;10891;49.350;19.386;2022-10-30T09:37:46;12.75;;;5.63;;
21458;SDS011;10891;49.350;19.386;2022-10-30T09:40:17;12.82;;;5.47;;
21458;SDS011;10891;49.350;19.386;2022-10-30T09:42:48;15.75;;;5.55;;
21458;SDS011;10891;49.350;19.386;2022-10-30T09:45:19;14.57;;;5.38;;
21458;SDS011;10891;49.350;19.386;2022-10-30T09:51:16;14.75;;;4.30;;
21458;SDS011;10891;49.350;19.386;2022-10-30T09:54:01;12.45;;;4.38;;
21458;SDS011;10891;49.350;19.386;2022-10-30T09:56:38;15.40;;;3.92;;
21458;SDS011;10891;49.350;19.386;2022-10-30T09:59:11;13.65;;;5.13;;
21458;SDS011;10891;49.350;19.386;2022-10-30T10:01:53;12.65;;;4.53;;
21458;SDS011;10891;49.350;19.386;2022-10-30T10:04:27;13.27;;;4.25;;
21458;SDS011;10891;49.350;19.386;2022-10-30T10:07:01;10.75;;;3.80;;
21458;SDS011;10891;49.350;19.386;2022-10-30T10:09:32;11.25;;;3.20;;
21458;SDS011;10891;49.350;19.386;2022-10-30T10:12:03;11.25;;;3.55;;
21458;SDS011;10891;49.350;19.386;2022-10-30T10:14:36;15.32;;;3.75;;
21458;SDS011;10891;49.350;19.386;2022-10-30T10:17:09;12.73;;;3.53;;
21458;SDS011;10891;49.350;19.386;2022-10-30T10:19:47;22.45;;;4.10;;
21458;SDS011;10891;49.350;19.386;2022-10-30T10:22:19;12.95;;;3.33;;
21458;SDS011;10891;49.350;19.386;2022-10-30T10:24:47;6.35;;;2.63;;
21458;SDS011;10891;49.350;19.386;2022-10-30T10:27:17;8.05;;;2.55;;
21458;SDS011;10891;49.350;19.386;2022-10-30T10:29:53;13.25;;;3.42;;
21458;SDS011;10891;49.350;19.386;2022-10-30T10:35:48;8.90;;;2.92;;
21458;SDS011;10891;49.350;19.386;2022-10-30T10:38:23;11.73;;;3.03;;
21458;SDS011;10891;49.350;19.386;2022-10-30T10:40:59;13.55;;;2.90;;
21458;SDS011;10891;49.350;19.386;2022-10-30T10:43:37;9.98;;;2.38;;
21458;SDS011;10891;49.350;19.386;2022-10-30T10:46:19;14.02;;;2.83;;
21458;SDS011;10891;49.350;19.386;2022-10-30T10:49:01;10.05;;;2.58;;
21458;SDS011;10891;49.350;19.386;2022-10-30T10:51:41;12.32;;;3.10;;
21458;SDS011;10891;49.350;19.386;2022-10-30T10:54:14;12.13;;;2.65;;
21458;SDS011;10891;49.350;19.386;2022-10-30T10:56:45;8.40;;;2.55;;
21458;SDS011;10891;49.350;19.386;2022-10-30T10:59:15;8.27;;;2.40;;
21458;SDS011;10891;49.350;19.386;2022-10-30T11:01:48;10.23;;;2.40;;
21458;SDS011;10891;49.350;19.386;2022-10-30T11:04:26;10.80;;;2.85;;
21458;SDS011;10891;49.350;19.386;2022-10-30T11:07:13;9.40;;;2.05;;
21458;SDS011;10891;49.350;19.386;2022-10-30T11:09:46;8.65;;;2.35;;
21458;SDS011;10891;49.350;19.386;2022-10-30T11:12:18;8.30;;;2.08;;
21458;SDS011;10891;49.350;19.386;2022-10-30T11:14:50;8.02;;;2.13;;
21458;SDS011;10891;49.350;19.386;2022-10-30T11:17:18;5.63;;;1.90;;
21458;SDS011;10891;49.350;19.386;2022-10-30T11:19:50;14.32;;;3.10;;
21458;SDS011;10891;49.350;19.386;2022-10-30T11:22:24;6.35;;;2.20;;
21458;SDS011;10891;49.350;19.386;2022-10-30T11:24:55;7.20;;;1.92;;
21458;SDS011;10891;49.350;19.386;2022-10-30T11:27:44;6.68;;;2.30;;
21458;SDS011;10891;49.350;19.386;2022-10-30T11:30:17;8.02;;;2.42;;
21458;SDS011;10891;49.350;19.386;2022-10-30T11:32:46;10.45;;;2.72;;
21458;SDS011;10891;49.350;19.386;2022-10-30T11:35:14;11.23;;;2.50;;
21458;SDS011;10891;49.350;19.386;2022-10-30T11:37:45;7.97;;;2.22;;
21458;SDS011;10891;49.350;19.386;2022-10-30T11:40:17;5.95;;;2.20;;
21458;SDS011;10891;49.350;19.386;2022-10-30T11:42:47;8.65;;;2.40;;
21458;SDS011;10891;49.350;19.386;2022-10-30T11:45:25;7.05;;;2.35;;
21458;SDS011;10891;49.350;19.386;2022-10-30T11:47:54;8.50;;;2.25;;
21458;SDS011;10891;49.350;19.386;2022-10-30T11:50:24;7.68;;;1.80;;
21458;SDS011;10891;49.350;19.386;2022-10-30T11:52:55;7.35;;;1.20;;
21458;SDS011;10891;49.350;19.386;2022-10-30T11:55:27;5.10;;;1.58;;
21458;SDS011;10891;49.350;19.386;2022-10-30T11:57:58;5.05;;;1.75;;
21458;SDS011;10891;49.350;19.386;2022-10-30T12:00:26;7.43;;;1.92;;
21458;SDS011;10891;49.350;19.386;2022-10-30T12:02:56;14.48;;;2.05;;
21458;SDS011;10891;49.350;19.386;2022-10-30T12:05:35;4.85;;;1.42;;
21458;SDS011;10891;49.350;19.386;2022-10-30T12:08:16;7.03;;;1.52;;
21458;SDS011;10891;49.350;19.386;2022-10-30T12:10:45;6.43;;;1.10;;
21458;SDS011;10891;49.350;19.386;2022-10-30T12:13:20;4.63;;;1.70;;
21458;SDS011;10891;49.350;19.386;2022-10-30T12:15:49;6.13;;;2.25;;
21458;SDS011;10891;49.350;19.386;2022-10-30T12:18:28;6.75;;;1.60;;
21458;SDS011;10891;49.350;19.386;2022-10-30T12:20:57;4.80;;;1.58;;
21458;SDS011;10891;49.350;19.386;2022-10-30T12:23:26;7.75;;;1.67;;
21458;SDS011;10891;49.350;19.386;2022-10-30T12:25:54;4.38;;;1.30;;
21458;SDS011;10891;49.350;19.386;2022-10-30T12:28:23;12.35;;;2.17;;
21458;SDS011;10891;49.350;19.386;2022-10-30T12:30:53;6.75;;;1.88;;
21458;SDS011;10891;49.350;19.386;2022-10-30T12:33:23;6.28;;;1.20;;
21458;SDS011;10891;49.350;19.386;2022-10-30T12:35:54;5.47;;;1.67;;
21458;SDS011;10891;49.350;19.386;2022-10-30T12:38:24;5.40;;;1.50;;
21458;SDS011;10891;49.350;19.386;2022-10-30T12:41:00;7.18;;;1.52;;
21458;SDS011;10891;49.350;19.386;2022-10-30T12:43:31;8.85;;;1.60;;
21458;SDS011;10891;49.350;19.386;2022-10-30T12:46:04;14.00;;;5.55;;
21458;SDS011;10891;49.350;19.386;2022-10-30T12:48:40;9.93;;;2.33;;
21458;SDS011;10891;49.350;19.386;2022-10-30T12:51:15;4.47;;;1.70;;
21458;SDS011;10891;49.350;19.386;2022-10-30T12:53:48;5.30;;;1.52;;
21458;SDS011;10891;49.350;19.386;2022-10-30T12:56:24;10.43;;;1.83;;
21458;SDS011;10891;49.350;19.386;2022-10-30T12:58:56;9.60;;;1.65;;
21458;SDS011;10891;49.350;19.386;2022-10-30T13:01:35;6.95;;;1.92;;
21458;SDS011;10891;49.350;19.386;2022-10-30T13:04:10;6.97;;;1.65;;
21458;SDS011;10891;49.350;19.386;2022-10-30T13:06:44;9.13;;;1.60;;
21458;SDS011;10891;49.350;19.386;2022-10-30T13:09:17;7.80;;;2.40;;
21458;SDS011;10891;49.350;19.386;2022-10-30T13:11:50;11.50;;;2.33;;
21458;SDS011;10891;49.350;19.386;2022-10-30T13:14:21;7.25;;;1.80;;
21458;SDS011;10891;49.350;19.386;2022-10-30T13:16:54;8.40;;;1.73;;
21458;SDS011;10891;49.350;19.386;2022-10-30T13:19:22;9.38;;;2.33;;
21458;SDS011;10891;49.350;19.386;2022-10-30T13:21:51;9.77;;;2.40;;
21458;SDS011;10891;49.350;19.386;2022-10-30T13:24:27;5.15;;;1.90;;
21458;SDS011;10891;49.350;19.386;2022-10-30T13:27:03;8.20;;;2.58;;
21458;SDS011;10891;49.350;19.386;2022-10-30T13:29:36;7.35;;;2.10;;
21458;SDS011;10891;49.350;19.386;2022-10-30T13:32:16;7.85;;;2.10;;
21458;SDS011;10891;49.350;19.386;2022-10-30T13:34:53;7.25;;;1.95;;
21458;SDS011;10891;49.350;19.386;2022-10-30T13:37:27;6.20;;;2.17;;
21458;SDS011;10891;49.350;19.386;2022-10-30T13:40:08;7.53;;;1.85;;
21458;SDS011;10891;49.350;19.386;2022-10-30T13:42:46;31.25;;;3.85;;
21458;SDS011;10891;49.350;19.386;2022-10-30T13:45:25;10.50;;;2.65;;
21458;SDS011;10891;49.350;19.386;2022-10-30T13:48:06;9.15;;;1.98;;
21458;SDS011;10891;49.350;19.386;2022-10-30T13:50:43;8.18;;;1.55;;
21458;SDS011;10891;49.350;19.386;2022-10-30T13:53:26;9.32;;;2.58;;
21458;SDS011;10891;49.350;19.386;2022-10-30T13:55:59;10.00;;;2.47;;
21458;SDS011;10891;49.350;19.386;2022-10-30T13:58:28;15.60;;;2.70;;
21458;SDS011;10891;49.350;19.386;2022-10-30T14:01:02;8.95;;;2.40;;
21458;SDS011;10891;49.350;19.386;2022-10-30T14:03:42;13.15;;;2.70;;
21458;SDS011;10891;49.350;19.386;2022-10-30T14:06:20;12.30;;;2.90;;
21458;SDS011;10891;49.350;19.386;2022-10-30T14:08:51;15.07;;;2.78;;
21458;SDS011;10891;49.350;19.386;2022-10-30T14:11:25;12.18;;;2.40;;
21458;SDS011;10891;49.350;19.386;2022-10-30T14:13:53;9.60;;;2.50;;
21458;SDS011;10891;49.350;19.386;2022-10-30T14:16:34;8.65;;;2.97;;
21458;SDS011;10891;49.350;19.386;2022-10-30T14:19:05;10.07;;;2.85;;
21458;SDS011;10891;49.350;19.386;2022-10-30T14:21:37;13.30;;;3.42;;
21458;SDS011;10891;49.350;19.386;2022-10-30T14:24:15;10.00;;;3.53;;
21458;SDS011;10891;49.350;19.386;2022-10-30T14:26:53;13.32;;;5.05;;
21458;SDS011;10891;49.350;19.386;2022-10-30T14:29:41;29.05;;;10.45;;
21458;SDS011;10891;49.350;19.386;2022-10-30T14:35:29;21.45;;;7.07;;
21458;SDS011;10891;49.350;19.386;2022-10-30T14:41:04;22.20;;;8.90;;
21458;SDS011;10891;49.350;19.386;2022-10-30T14:43:57;15.20;;;5.97;;
21458;SDS011;10891;49.350;19.386;2022-10-30T14:46:41;13.23;;;3.50;;
21458;SDS011;10891;49.350;19.386;2022-10-30T14:49:27;8.95;;;3.10;;
21458;SDS011;10891;49.350;19.386;2022-10-30T14:52:06;13.77;;;3.58;;
21458;SDS011;10891;49.350;19.386;2022-10-30T14:54:41;16.55;;;4.50;;